Time;durP1;ratioP1;P1;durP2;ratioP2;P2;SDS_P1;SDS_P2;PMS_P1;PMS_P2;Temp;Humidity;BMP_temperature;BMP_pressure;BME280_temperature;BME280_humidity;BME280_pressure;Samples;Min_cycle;Max_cycle;Signal;HPM_P1;HPM_P2
2021/03/29 00:00:21;;;;;;;7.43;3.40;;;;;;;;;;4996346;28;20468;-68
2021/03/29 00:02:47;;;;;;;7.40;3.25;;;;;;;;;;5013492;28;20045;-68
2021/03/29 00:05:14;;;;;;;9.75;3.33;;;;;;;;;;5012976;28;20053;-68
2021/03/29 00:07:42;;;;;;;9.32;4.30;;;;;;;;;;5013229;28;20454;-69
2021/03/29 00:10:09;;;;;;;6.05;3.50;;;;;;;;;;4995792;28;20460;-68
2021/03/29 00:12:35;;;;;;;7.10;3.40;;;;;;;;;;4996066;28;20084;-69
2021/03/29 00:15:04;;;;;;;5.57;3.15;;;;;;;;;;5013017;28;20050;-68
2021/03/29 00:17:30;;;;;;;8.00;3.50;;;;;;;;;;5012910;28;20107;-69
2021/03/29 00:19:56;;;;;;;11.55;3.97;;;;;;;;;;4995741;28;20108;-68
2021/03/29 00:22:22;;;;;;;9.50;3.90;;;;;;;;;;4979563;28;20081;-68
2021/03/29 00:24:48;;;;;;;9.02;3.47;;;;;;;;;;4995586;28;20463;-68
2021/03/29 00:27:14;;;;;;;6.22;3.00;;;;;;;;;;5011205;28;20081;-68
2021/03/29 00:29:41;;;;;;;6.90;3.20;;;;;;;;;;4995630;28;20127;-68
2021/03/29 00:32:07;;;;;;;5.38;3.47;;;;;;;;;;4995665;28;20136;-69
2021/03/29 00:34:34;;;;;;;7.57;3.33;;;;;;;;;;4995482;28;20089;-68
2021/03/29 00:37:00;;;;;;;8.15;2.97;;;;;;;;;;4978667;28;20493;-68
2021/03/29 00:39:26;;;;;;;7.78;3.47;;;;;;;;;;4995448;28;20081;-68
2021/03/29 00:41:52;;;;;;;6.82;2.92;;;;;;;;;;4979230;28;20477;-69
2021/03/29 00:44:20;;;;;;;4.93;3.10;;;;;;;;;;4995300;28;20081;-69
2021/03/29 00:46:46;;;;;;;6.28;2.85;;;;;;;;;;4994831;28;20050;-69
2021/03/29 00:49:12;;;;;;;6.22;3.10;;;;;;;;;;4995274;28;20050;-68
2021/03/29 00:51:39;;;;;;;9.20;3.70;;;;;;;;;;4995114;28;20096;-69
2021/03/29 00:54:06;;;;;;;6.18;3.25;;;;;;;;;;4995144;28;20100;-68
2021/03/29 00:56:32;;;;;;;4.90;2.90;;;;;;;;;;4994536;28;20096;-68
2021/03/29 00:58:59;;;;;;;3.53;3.00;;;;;;;;;;5012417;28;20053;-68
2021/03/29 01:01:28;;;;;;;7.75;2.63;;;;;;;;;;5011285;28;20058;-68
2021/03/29 01:03:56;;;;;;;6.97;3.35;;;;;;;;;;5012302;28;20065;-68
2021/03/29 01:06:25;;;;;;;8.25;3.25;;;;;;;;;;5011654;28;20494;-68
2021/03/29 01:08:54;;;;;;;7.40;3.13;;;;;;;;;;4995271;28;20046;-68
2021/03/29 01:11:26;;;;;;;5.72;3.03;;;;;;;;;;4995175;28;20049;-69
2021/03/29 01:14:04;;;;;;;6.47;3.60;;;;;;;;;;4994962;28;20096;-68
2021/03/29 01:16:42;;;;;;;7.00;3.60;;;;;;;;;;4993932;28;20456;-68
2021/03/29 01:19:17;;;;;;;9.02;3.30;;;;;;;;;;5012279;28;20108;-68
2021/03/29 01:21:43;;;;;;;7.32;3.88;;;;;;;;;;4995729;28;20575;-68
2021/03/29 01:24:25;;;;;;;9.38;3.35;;;;;;;;;;5011988;28;20112;-68
2021/03/29 01:26:52;;;;;;;8.85;3.65;;;;;;;;;;4978708;28;20077;-68
2021/03/29 01:29:19;;;;;;;5.28;3.13;;;;;;;;;;4978512;28;20500;-68
2021/03/29 01:31:45;;;;;;;6.80;3.33;;;;;;;;;;5010639;28;20505;-68
2021/03/29 01:34:13;;;;;;;6.55;3.63;;;;;;;;;;4994184;28;20054;-68
2021/03/29 01:36:40;;;;;;;6.85;3.95;;;;;;;;;;5010027;28;20092;-68
2021/03/29 01:39:07;;;;;;;6.97;3.78;;;;;;;;;;4994702;28;20050;-68
2021/03/29 01:41:33;;;;;;;8.75;3.50;;;;;;;;;;4994592;28;20508;-68
2021/03/29 01:44:00;;;;;;;9.45;3.47;;;;;;;;;;4994545;28;20100;-68
2021/03/29 01:46:27;;;;;;;5.97;3.03;;;;;;;;;;4977718;28;20456;-68
2021/03/29 01:48:53;;;;;;;7.88;3.20;;;;;;;;;;4994249;28;20053;-68
2021/03/29 01:51:19;;;;;;;8.93;3.55;;;;;;;;;;4994217;28;20050;-68
2021/03/29 01:53:46;;;;;;;6.03;3.13;;;;;;;;;;4994312;28;20054;-68
2021/03/29 01:56:12;;;;;;;6.00;3.15;;;;;;;;;;5009700;28;20081;-69
2021/03/29 01:58:38;;;;;;;6.05;3.53;;;;;;;;;;5011562;28;20083;-68
2021/03/29 02:01:07;;;;;;;4.90;3.13;;;;;;;;;;5010186;28;20549;-69
2021/03/29 02:03:34;;;;;;;5.78;3.10;;;;;;;;;;5012649;28;20096;-68
2021/03/29 02:06:00;;;;;;;8.18;3.22;;;;;;;;;;5014654;28;20049;-68
2021/03/29 02:08:27;;;;;;;5.07;3.55;;;;;;;;;;5015429;28;20053;-68
2021/03/29 02:10:53;;;;;;;6.13;3.10;;;;;;;;;;4997925;28;20080;-68
2021/03/29 02:13:22;;;;;;;5.97;3.53;;;;;;;;;;5015569;28;20046;-68
2021/03/29 02:15:52;;;;;;;6.90;3.05;;;;;;;;;;4997378;28;20058;-68
2021/03/29 02:18:23;;;;;;;8.13;3.35;;;;;;;;;;5014292;28;20050;-68
2021/03/29 02:20:49;;;;;;;4.82;2.88;;;;;;;;;;4982532;28;20053;-68
2021/03/29 02:23:18;;;;;;;6.95;2.95;;;;;;;;;;4997780;28;20096;-68
2021/03/29 02:25:45;;;;;;;7.22;2.95;;;;;;;;;;5014757;28;20056;-68
2021/03/29 02:28:12;;;;;;;6.05;2.80;;;;;;;;;;5015323;28;20081;-68
2021/03/29 02:30:41;;;;;;;9.63;2.92;;;;;;;;;;4998024;28;20046;-68
2021/03/29 02:33:10;;;;;;;7.90;3.00;;;;;;;;;;4997980;28;20053;-68
2021/03/29 02:35:37;;;;;;;7.28;3.50;;;;;;;;;;4997437;28;20049;-68
2021/03/29 02:38:06;;;;;;;6.10;3.55;;;;;;;;;;5015111;28;20050;-68
2021/03/29 02:40:33;;;;;;;7.82;3.10;;;;;;;;;;5015275;28;20092;-68
2021/03/29 02:42:59;;;;;;;5.18;2.90;;;;;;;;;;4997499;28;20045;-68
2021/03/29 02:45:29;;;;;;;5.65;2.63;;;;;;;;;;4996881;28;20063;-68
2021/03/29 02:47:59;;;;;;;7.90;3.00;;;;;;;;;;5015127;28;20085;-68
2021/03/29 02:50:26;;;;;;;6.60;2.58;;;;;;;;;;4998094;28;20085;-68
2021/03/29 02:52:54;;;;;;;7.38;3.00;;;;;;;;;;5015307;28;20042;-69
2021/03/29 02:55:21;;;;;;;7.97;3.40;;;;;;;;;;4997046;28;20054;-68
2021/03/29 02:57:48;;;;;;;7.07;2.75;;;;;;;;;;5013761;28;20139;-68
2021/03/29 03:00:17;;;;;;;6.43;3.00;;;;;;;;;;4997359;28;20497;-68
2021/03/29 03:02:44;;;;;;;8.02;3.33;;;;;;;;;;4997478;28;20046;-68
2021/03/29 03:05:12;;;;;;;5.60;3.00;;;;;;;;;;4996729;28;20101;-68
2021/03/29 03:07:38;;;;;;;8.02;3.10;;;;;;;;;;5014299;28;20089;-68
2021/03/29 03:10:10;;;;;;;8.73;3.10;;;;;;;;;;4997173;28;20057;-68
2021/03/29 03:12:46;;;;;;;7.97;3.00;;;;;;;;;;5014638;28;20124;-68
2021/03/29 03:15:17;;;;;;;6.05;2.65;;;;;;;;;;5046895;23;20021;-69
2021/03/29 03:17:44;;;;;;;4.47;2.45;;;;;;;;;;5034077;28;20073;-69
2021/03/29 03:20:11;;;;;;;6.70;2.92;;;;;;;;;;5034582;28;20053;-69
2021/03/29 03:22:51;;;;;;;7.03;2.60;;;;;;;;;;5034469;28;20458;-69
2021/03/29 03:25:22;;;;;;;6.47;2.67;;;;;;;;;;5028831;28;20100;-69
2021/03/29 03:27:49;;;;;;;4.55;3.10;;;;;;;;;;5014385;28;20054;-69
2021/03/29 03:30:17;;;;;;;6.10;3.03;;;;;;;;;;5014109;28;20500;-69
2021/03/29 03:32:43;;;;;;;7.47;2.60;;;;;;;;;;5014282;28;20049;-69
2021/03/29 03:35:10;;;;;;;4.10;2.72;;;;;;;;;;4996260;28;20054;-69
2021/03/29 03:37:36;;;;;;;5.93;3.10;;;;;;;;;;5013917;28;20054;-69
2021/03/29 03:40:04;;;;;;;4.55;2.50;;;;;;;;;;4996616;28;20078;-69
2021/03/29 03:42:30;;;;;;;6.80;2.75;;;;;;;;;;4996585;28;20077;-69
2021/03/29 03:44:56;;;;;;;9.68;3.67;;;;;;;;;;4996320;28;20198;-69
2021/03/29 03:47:22;;;;;;;7.32;3.08;;;;;;;;;;4995909;28;20459;-69
2021/03/29 03:49:48;;;;;;;3.45;2.10;;;;;;;;;;5013899;28;20049;-69
2021/03/29 03:52:14;;;;;;;8.98;3.00;;;;;;;;;;5012660;28;20120;-69
2021/03/29 03:54:41;;;;;;;8.50;2.70;;;;;;;;;;5012771;28;20053;-69
2021/03/29 03:57:07;;;;;;;7.75;3.42;;;;;;;;;;4995559;28;20049;-69
2021/03/29 03:59:34;;;;;;;7.45;2.85;;;;;;;;;;4996438;28;20050;-69
2021/03/29 04:02:05;;;;;;;4.97;2.72;;;;;;;;;;4996338;28;20057;-69
2021/03/29 04:04:32;;;;;;;8.00;3.00;;;;;;;;;;4996984;28;20096;-69
2021/03/29 04:06:59;;;;;;;6.93;3.03;;;;;;;;;;5012910;28;20092;-70
2021/03/29 04:11:58;;;;;;;5.45;2.65;;;;;;;;;;5013268;28;20050;-69
2021/03/29 04:14:24;;;;;;;5.97;3.08;;;;;;;;;;5013443;28;20050;-69
2021/03/29 04:16:50;;;;;;;7.70;3.00;;;;;;;;;;5012603;28;20057;-69
2021/03/29 04:19:16;;;;;;;4.90;3.05;;;;;;;;;;5013509;28;20049;-69
2021/03/29 04:21:42;;;;;;;9.43;2.90;;;;;;;;;;5013427;28;20076;-69
2021/03/29 04:24:08;;;;;;;4.03;2.53;;;;;;;;;;5011835;28;20084;-69
2021/03/29 04:26:34;;;;;;;5.57;2.67;;;;;;;;;;5011958;28;20050;-69
2021/03/29 04:29:00;;;;;;;6.80;2.97;;;;;;;;;;5012998;28;20104;-69
2021/03/29 04:31:26;;;;;;;6.28;3.13;;;;;;;;;;5013044;28;20078;-69
2021/03/29 04:33:52;;;;;;;6.18;3.15;;;;;;;;;;5012971;28;20050;-69
2021/03/29 04:36:18;;;;;;;7.05;3.42;;;;;;;;;;5012232;28;20107;-69
2021/03/29 04:38:44;;;;;;;6.15;3.28;;;;;;;;;;5013697;28;20053;-70
2021/03/29 04:41:10;;;;;;;9.02;3.08;;;;;;;;;;5012829;28;20124;-70
2021/03/29 04:43:37;;;;;;;8.10;2.70;;;;;;;;;;5012777;28;20572;-70
2021/03/29 04:46:03;;;;;;;7.68;3.10;;;;;;;;;;5012050;28;20116;-69
2021/03/29 04:48:29;;;;;;;9.65;3.65;;;;;;;;;;5012751;28;20124;-70
2021/03/29 04:50:55;;;;;;;9.50;4.40;;;;;;;;;;5012770;28;20054;-70
2021/03/29 04:53:21;;;;;;;9.48;3.03;;;;;;;;;;5012744;28;20077;-69
2021/03/29 04:55:47;;;;;;;8.52;3.97;;;;;;;;;;5012034;28;20050;-69
2021/03/29 04:58:13;;;;;;;12.05;4.70;;;;;;;;;;5012345;28;20054;-69
2021/03/29 05:00:39;;;;;;;10.30;4.70;;;;;;;;;;5012581;28;20103;-69
2021/03/29 05:03:05;;;;;;;9.15;3.65;;;;;;;;;;5012340;28;20049;-69
2021/03/29 05:05:31;;;;;;;6.75;3.22;;;;;;;;;;5011814;28;20104;-70
2021/03/29 05:07:57;;;;;;;9.10;3.60;;;;;;;;;;5012123;28;20050;-69
2021/03/29 05:10:23;;;;;;;8.40;3.08;;;;;;;;;;5012431;28;20147;-69
2021/03/29 05:12:53;;;;;;;8.82;3.80;;;;;;;;;;5012680;28;20301;-69
2021/03/29 05:15:19;;;;;;;11.05;3.70;;;;;;;;;;5011460;28;20106;-69
2021/03/29 05:17:46;;;;;;;8.82;3.90;;;;;;;;;;5012386;28;20112;-70
2021/03/29 05:20:12;;;;;;;9.10;4.35;;;;;;;;;;5012172;28;20515;-69
2021/03/29 05:22:38;;;;;;;11.45;4.72;;;;;;;;;;5012142;28;20092;-69
2021/03/29 05:25:04;;;;;;;12.00;3.60;;;;;;;;;;5011875;28;20049;-69
2021/03/29 05:27:31;;;;;;;12.23;3.90;;;;;;;;;;5011689;28;20092;-69
2021/03/29 05:29:57;;;;;;;9.32;3.70;;;;;;;;;;5012272;28;20081;-69
2021/03/29 05:32:25;;;;;;;6.07;3.13;;;;;;;;;;5012118;28;20050;-69
2021/03/29 05:34:54;;;;;;;6.35;3.00;;;;;;;;;;5012010;28;20077;-69
2021/03/29 05:37:20;;;;;;;7.45;3.67;;;;;;;;;;5011129;28;20424;-69
2021/03/29 05:39:47;;;;;;;10.75;4.03;;;;;;;;;;5011507;28;20112;-69
2021/03/29 05:42:16;;;;;;;7.75;3.65;;;;;;;;;;5011904;28;20046;-69
2021/03/29 05:44:42;;;;;;;8.95;4.05;;;;;;;;;;5011826;28;20096;-69
2021/03/29 05:47:08;;;;;;;10.27;3.22;;;;;;;;;;5009872;28;20172;-69
2021/03/29 05:49:34;;;;;;;6.65;3.08;;;;;;;;;;4994700;28;20069;-69
2021/03/29 05:52:01;;;;;;;10.30;3.63;;;;;;;;;;5011897;28;20050;-70
2021/03/29 05:54:27;;;;;;;6.53;3.47;;;;;;;;;;5011838;28;20500;-69
2021/03/29 05:56:54;;;;;;;9.95;4.07;;;;;;;;;;5010930;28;20493;-69
2021/03/29 06:01:56;;;;;;;12.73;3.83;;;;;;;;;;5010614;28;20081;-69
2021/03/29 06:04:44;;;;;;;9.32;3.47;;;;;;;;;;5011830;28;20049;-69
2021/03/29 06:07:18;;;;;;;11.50;3.88;;;;;;;;;;5011189;28;20103;-69
2021/03/29 06:09:45;;;;;;;9.18;4.07;;;;;;;;;;5011775;28;20463;-69
2021/03/29 06:12:13;;;;;;;8.75;4.13;;;;;;;;;;5011479;28;20660;-69
2021/03/29 06:14:39;;;;;;;15.20;4.28;;;;;;;;;;5011567;28;20473;-69
2021/03/29 06:17:19;;;;;;;12.88;4.45;;;;;;;;;;5011016;28;20088;-69
2021/03/29 06:19:53;;;;;;;11.93;3.75;;;;;;;;;;5010540;28;20053;-70
2021/03/29 06:22:23;;;;;;;10.38;4.15;;;;;;;;;;5011572;28;20053;-69
2021/03/29 06:24:58;;;;;;;11.02;3.45;;;;;;;;;;5011582;28;20096;-69
2021/03/29 06:27:26;;;;;;;9.18;3.75;;;;;;;;;;5011036;28;20471;-69
2021/03/29 06:30:10;;;;;;;9.75;3.55;;;;;;;;;;5011472;28;20084;-69
2021/03/29 06:32:37;;;;;;;7.47;3.35;;;;;;;;;;5011483;28;20104;-69
2021/03/29 06:35:19;;;;;;;10.23;4.15;;;;;;;;;;5011159;28;20594;-69
2021/03/29 06:37:45;;;;;;;6.63;3.05;;;;;;;;;;5011474;28;20049;-69
2021/03/29 06:40:11;;;;;;;5.85;2.92;;;;;;;;;;4993812;28;20556;-69
2021/03/29 06:42:37;;;;;;;10.23;3.78;;;;;;;;;;5009932;28;20058;-69
2021/03/29 06:45:15;;;;;;;5.13;2.85;;;;;;;;;;4977613;28;20058;-69
2021/03/29 06:47:42;;;;;;;10.30;3.58;;;;;;;;;;5011246;28;20100;-69
2021/03/29 06:50:22;;;;;;;9.82;4.03;;;;;;;;;;5012997;28;20124;-69
2021/03/29 06:52:50;;;;;;;9.80;3.85;;;;;;;;;;4999134;28;20050;-70
2021/03/29 06:55:21;;;;;;;14.50;4.85;;;;;;;;;;5014292;28;20050;-70
2021/03/29 06:58:04;;;;;;;8.50;3.72;;;;;;;;;;5014927;28;20112;-69
2021/03/29 07:00:34;;;;;;;8.40;4.10;;;;;;;;;;5015007;28;20081;-69
2021/03/29 07:03:08;;;;;;;9.85;4.30;;;;;;;;;;5014784;28;20045;-69
2021/03/29 07:05:35;;;;;;;11.65;4.28;;;;;;;;;;5014107;28;20104;-69
2021/03/29 07:08:03;;;;;;;11.07;3.70;;;;;;;;;;5014784;28;20049;-69
2021/03/29 07:10:29;;;;;;;8.93;4.32;;;;;;;;;;4997342;28;20057;-70
2021/03/29 07:12:56;;;;;;;7.45;3.90;;;;;;;;;;5014242;28;20089;-70
2021/03/29 07:15:23;;;;;;;8.60;3.25;;;;;;;;;;5013754;28;20512;-70
2021/03/29 07:17:49;;;;;;;8.75;3.15;;;;;;;;;;5014518;28;20050;-70
2021/03/29 07:20:26;;;;;;;8.25;3.50;;;;;;;;;;5014511;28;20464;-69
2021/03/29 07:22:54;;;;;;;8.45;3.25;;;;;;;;;;5014232;28;20089;-69
2021/03/29 07:25:22;;;;;;;6.15;3.85;;;;;;;;;;5013640;28;20112;-69
2021/03/29 07:27:52;;;;;;;8.10;3.22;;;;;;;;;;5014192;28;20096;-69
2021/03/29 07:30:39;;;;;;;9.38;3.78;;;;;;;;;;5014552;28;20050;-70
2021/03/29 07:33:05;;;;;;;9.98;3.35;;;;;;;;;;5014199;28;20074;-70
2021/03/29 07:35:51;;;;;;;8.43;2.70;;;;;;;;;;4996118;28;20058;-69
2021/03/29 07:38:24;;;;;;;11.55;3.20;;;;;;;;;;5014097;28;20393;-70
2021/03/29 07:40:57;;;;;;;9.30;2.78;;;;;;;;;;5013913;28;20046;-70
2021/03/29 07:43:24;;;;;;;8.77;3.20;;;;;;;;;;5014173;28;20049;-70
2021/03/29 07:46:03;;;;;;;5.50;2.92;;;;;;;;;;5013201;28;20061;-69
2021/03/29 07:48:44;;;;;;;8.40;3.25;;;;;;;;;;5013981;28;20111;-70
2021/03/29 07:51:14;;;;;;;7.57;2.70;;;;;;;;;;5013761;28;20072;-70
2021/03/29 07:53:45;;;;;;;5.65;3.10;;;;;;;;;;5013682;28;20468;-70
2021/03/29 07:56:22;;;;;;;9.57;3.33;;;;;;;;;;5013135;28;20089;-70
2021/03/29 07:58:48;;;;;;;7.63;3.20;;;;;;;;;;4996191;28;20050;-70
2021/03/29 08:01:16;;;;;;;4.07;2.67;;;;;;;;;;5012605;28;20057;-70
2021/03/29 08:03:46;;;;;;;4.93;2.85;;;;;;;;;;5013657;28;20041;-70
2021/03/29 08:06:40;;;;;;;6.25;3.08;;;;;;;;;;5012729;28;20058;-70
2021/03/29 08:09:09;;;;;;;5.18;3.03;;;;;;;;;;5013458;28;20049;-70
2021/03/29 08:11:55;;;;;;;14.15;4.05;;;;;;;;;;5013414;28;20046;-70
2021/03/29 08:14:31;;;;;;;5.50;3.25;;;;;;;;;;5013427;28;20050;-70
2021/03/29 08:16:57;;;;;;;7.00;2.30;;;;;;;;;;5012492;28;20115;-70
2021/03/29 08:19:29;;;;;;;7.93;2.67;;;;;;;;;;5013198;28;20137;-70
2021/03/29 08:21:58;;;;;;;5.47;2.30;;;;;;;;;;5013204;28;20108;-70
2021/03/29 08:24:31;;;;;;;5.53;2.67;;;;;;;;;;5013279;28;20049;-70
2021/03/29 08:26:59;;;;;;;3.65;1.95;;;;;;;;;;5012535;28;20413;-70
2021/03/29 08:29:29;;;;;;;6.07;2.40;;;;;;;;;;5013291;28;20147;-70
2021/03/29 08:32:05;;;;;;;3.47;1.67;;;;;;;;;;5012867;28;20543;-70
2021/03/29 08:34:35;;;;;;;3.65;2.13;;;;;;;;;;5013256;28;20448;-70
2021/03/29 08:37:04;;;;;;;5.82;2.03;;;;;;;;;;5012234;28;20053;-70
2021/03/29 08:39:32;;;;;;;5.25;1.60;;;;;;;;;;5012956;28;20137;-70
2021/03/29 08:41:58;;;;;;;6.35;1.90;;;;;;;;;;5012742;28;20050;-70
2021/03/29 08:44:26;;;;;;;7.50;2.05;;;;;;;;;;5012908;28;20046;-70
2021/03/29 08:46:53;;;;;;;5.22;2.13;;;;;;;;;;5012123;28;20054;-70
2021/03/29 08:49:19;;;;;;;5.90;1.90;;;;;;;;;;4995524;28;20131;-70
2021/03/29 08:51:45;;;;;;;3.17;1.45;;;;;;;;;;5012830;28;20058;-70
2021/03/29 08:54:12;;;;;;;4.63;1.90;;;;;;;;;;5012533;28;20076;-70
2021/03/29 08:56:48;;;;;;;5.03;2.05;;;;;;;;;;5011944;28;20085;-70
2021/03/29 08:59:15;;;;;;;8.20;2.30;;;;;;;;;;5012575;28;20077;-70
2021/03/29 09:01:41;;;;;;;4.70;1.80;;;;;;;;;;5012452;28;20515;-70
2021/03/29 09:04:09;;;;;;;5.68;2.33;;;;;;;;;;4994866;28;20069;-70
2021/03/29 09:06:35;;;;;;;6.20;2.45;;;;;;;;;;5011819;28;20049;-70
2021/03/29 09:09:15;;;;;;;7.10;2.35;;;;;;;;;;5012320;28;20056;-70
2021/03/29 09:11:42;;;;;;;4.95;1.98;;;;;;;;;;5012384;28;20054;-70
2021/03/29 09:14:11;;;;;;;5.78;2.10;;;;;;;;;;5012012;28;20046;-70
2021/03/29 09:16:38;;;;;;;5.95;2.08;;;;;;;;;;5011881;28;20058;-70
2021/03/29 09:19:15;;;;;;;4.15;1.83;;;;;;;;;;5012094;28;20050;-70
2021/03/29 09:21:42;;;;;;;4.15;1.40;;;;;;;;;;5012033;28;20057;-72
2021/03/29 09:24:19;;;;;;;8.27;2.00;;;;;;;;;;5010777;28;20424;-73
2021/03/29 09:27:10;;;;;;;5.07;2.40;;;;;;;;;;4994186;28;20489;-73
2021/03/29 09:29:38;;;;;;;5.07;1.80;;;;;;;;;;4993116;28;20049;-71
2021/03/29 09:32:15;;;;;;;3.75;1.63;;;;;;;;;;4980562;28;20046;-72
2021/03/29 09:34:44;;;;;;;4.35;1.50;;;;;;;;;;4973365;28;20053;-73
2021/03/29 09:37:26;;;;;;;6.18;1.10;;;;;;;;;;4969410;28;20046;-71
2021/03/29 09:40:19;;;;;;;5.70;1.42;;;;;;;;;;5007693;28;20423;-73
2021/03/29 09:42:52;;;;;;;3.83;1.23;;;;;;;;;;4995114;28;20041;-70
2021/03/29 09:45:23;;;;;;;5.25;1.33;;;;;;;;;;5006842;28;20053;-70
2021/03/29 09:48:08;;;;;;;3.20;1.40;;;;;;;;;;4998741;28;20057;-71
2021/03/29 09:50:47;;;;;;;4.28;1.30;;;;;;;;;;4998062;28;20077;-71
2021/03/29 09:53:20;;;;;;;4.20;1.55;;;;;;;;;;4997963;28;20049;-71
2021/03/29 09:55:49;;;;;;;7.57;1.77;;;;;;;;;;4999840;28;20054;-70
2021/03/29 09:58:30;;;;;;;6.63;2.58;;;;;;;;;;4995864;28;20050;-72
2021/03/29 10:01:04;;;;;;;4.85;1.70;;;;;;;;;;4997929;28;20092;-71
2021/03/29 10:03:52;;;;;;;5.10;1.60;;;;;;;;;;4999230;28;20064;-71
2021/03/29 10:06:19;;;;;;;6.45;1.80;;;;;;;;;;4997969;28;20053;-71
2021/03/29 10:09:05;;;;;;;6.40;1.67;;;;;;;;;;4994730;28;20547;-71
2021/03/29 10:11:50;;;;;;;11.73;2.63;;;;;;;;;;4982292;28;20049;-72
2021/03/29 10:14:16;;;;;;;6.50;1.60;;;;;;;;;;5007933;28;20413;-72
2021/03/29 10:16:47;;;;;;;3.60;1.38;;;;;;;;;;4996292;28;20061;-71
2021/03/29 10:19:15;;;;;;;2.88;1.60;;;;;;;;;;5000148;28;20060;-72
2021/03/29 10:22:01;;;;;;;7.10;1.98;;;;;;;;;;4999794;28;20401;-72
2021/03/29 10:24:28;;;;;;;5.90;1.88;;;;;;;;;;4998907;28;20082;-72
2021/03/29 10:26:54;;;;;;;3.60;1.48;;;;;;;;;;4982341;28;20132;-72
2021/03/29 10:29:36;;;;;;;6.43;2.13;;;;;;;;;;4985159;28;20089;-71
2021/03/29 10:32:18;;;;;;;5.80;1.80;;;;;;;;;;4980558;28;20441;-74
2021/03/29 10:34:45;;;;;;;4.80;1.90;;;;;;;;;;5005765;28;20047;-74
2021/03/29 10:37:29;;;;;;;6.05;1.92;;;;;;;;;;4980422;28;20301;-74
2021/03/29 10:40:08;;;;;;;6.78;1.80;;;;;;;;;;4983999;28;20120;-78
2021/03/29 10:42:36;;;;;;;4.95;1.50;;;;;;;;;;4970270;28;20064;-77
2021/03/29 10:45:04;;;;;;;3.78;2.00;;;;;;;;;;4976318;28;20061;-75
2021/03/29 10:51:18;;;;;;;3.65;1.70;;;;;;;;;;5004461;28;20075;-75
2021/03/29 10:53:45;;;;;;;6.50;2.42;;;;;;;;;;4984432;28;20043;-73
2021/03/29 10:56:11;;;;;;;7.03;1.95;;;;;;;;;;4996648;28;20046;-72
2021/03/29 10:58:37;;;;;;;6.68;2.35;;;;;;;;;;5002104;28;20417;-72
2021/03/29 11:01:03;;;;;;;4.18;2.20;;;;;;;;;;4999497;28;20046;-72
2021/03/29 11:03:31;;;;;;;11.00;2.95;;;;;;;;;;5004222;28;20046;-78
2021/03/29 11:05:59;;;;;;;4.88;2.13;;;;;;;;;;4976602;28;20060;-78
2021/03/29 11:12:27;;;;;;;9.32;4.97;;;;;;;;;;4926331;29;20078;-77
2021/03/29 11:14:56;;;;;;;8.52;2.55;;;;;;;;;;4917017;29;20075;-78
2021/03/29 11:29:22;;;;;;;;;;;;;;;;;;;;;
2021/03/29 11:32:58;;;;;;;4.90;1.63;;;;;;;;;;4927330;29;20062;-76
2021/03/29 11:35:25;;;;;;;3.97;2.00;;;;;;;;;;4991713;28;20049;-75
2021/03/29 11:37:54;;;;;;;3.00;1.42;;;;;;;;;;4953032;28;20525;-74
2021/03/29 11:40:21;;;;;;;7.05;1.60;;;;;;;;;;4984824;28;20445;-73
2021/03/29 11:42:48;;;;;;;4.53;1.67;;;;;;;;;;4991809;28;20568;-75
2021/03/29 11:45:14;;;;;;;4.97;1.60;;;;;;;;;;4984104;28;20442;-73
2021/03/29 11:47:41;;;;;;;6.53;2.30;;;;;;;;;;4999721;28;20088;-73
2021/03/29 11:50:11;;;;;;;4.30;2.08;;;;;;;;;;4988767;28;20049;-74
2021/03/29 11:52:38;;;;;;;7.35;2.20;;;;;;;;;;5008775;28;20057;-75
2021/03/29 11:55:05;;;;;;;6.63;1.88;;;;;;;;;;5003776;28;20052;-74
2021/03/29 11:57:32;;;;;;;7.53;2.55;;;;;;;;;;5007130;28;20065;-74
2021/03/29 11:59:58;;;;;;;6.38;1.77;;;;;;;;;;5011823;28;20459;-75
2021/03/29 12:02:33;;;;;;;3.25;1.85;;;;;;;;;;4969899;28;20097;-72
2021/03/29 12:07:36;;;;;;;12.77;2.08;;;;;;;;;;4966265;28;20474;-75
2021/03/29 12:12:47;;;;;;;4.93;1.48;;;;;;;;;;4973477;28;20135;-75
2021/03/29 12:15:15;;;;;;;4.97;2.00;;;;;;;;;;4983295;28;20046;-76
2021/03/29 12:17:45;;;;;;;3.15;2.08;;;;;;;;;;4999893;28;20054;-75
2021/03/29 12:20:13;;;;;;;6.93;3.10;;;;;;;;;;4990082;28;20151;-73
2021/03/29 12:22:39;;;;;;;3.95;1.50;;;;;;;;;;4983598;28;20080;-71
2021/03/29 12:25:05;;;;;;;5.00;1.67;;;;;;;;;;4985552;28;20081;-71
2021/03/29 12:27:31;;;;;;;5.82;2.30;;;;;;;;;;4982547;28;20082;-71
2021/03/29 12:30:03;;;;;;;6.50;2.75;;;;;;;;;;4982875;28;20090;-75
2021/03/29 12:32:29;;;;;;;4.60;1.70;;;;;;;;;;4984758;28;20107;-74
2021/03/29 12:34:56;;;;;;;7.05;1.80;;;;;;;;;;4997031;28;20140;-76
2021/03/29 12:37:24;;;;;;;4.30;1.85;;;;;;;;;;4970534;28;20050;-71
2021/03/29 12:40:01;;;;;;;4.13;1.63;;;;;;;;;;4998364;28;20124;-76
2021/03/29 12:42:30;;;;;;;3.80;1.40;;;;;;;;;;4983620;28;20050;-76
2021/03/29 12:45:06;;;;;;;3.22;1.15;;;;;;;;;;5007279;28;20549;-78
2021/03/29 12:47:35;;;;;;;4.22;1.80;;;;;;;;;;4996958;28;20054;-74
2021/03/29 12:50:12;;;;;;;4.75;1.92;;;;;;;;;;5005991;28;20056;-76
2021/03/29 12:52:43;;;;;;;2.88;1.70;;;;;;;;;;4990270;28;20049;-75
2021/03/29 12:55:13;;;;;;;4.25;1.45;;;;;;;;;;4986961;28;20064;-75
2021/03/29 12:57:40;;;;;;;3.75;1.42;;;;;;;;;;5003410;28;20108;-74
2021/03/29 13:00:10;;;;;;;4.03;1.20;;;;;;;;;;4991567;28;20128;-72
2021/03/29 13:02:37;;;;;;;4.05;1.70;;;;;;;;;;4986594;28;20077;-76
2021/03/29 13:05:08;;;;;;;4.50;1.75;;;;;;;;;;4979880;28;20416;-77
2021/03/29 13:07:42;;;;;;;3.40;1.60;;;;;;;;;;4980937;28;20056;-73
2021/03/29 13:12:53;;;;;;;2.47;1.58;;;;;;;;;;5001201;28;20073;-72
2021/03/29 13:15:20;;;;;;;4.50;1.80;;;;;;;;;;5001959;28;20053;-73
2021/03/29 13:17:46;;;;;;;7.72;2.05;;;;;;;;;;4981250;28;20046;-74
2021/03/29 13:20:18;;;;;;;3.30;1.60;;;;;;;;;;5003444;28;20081;-75
2021/03/29 13:22:47;;;;;;;3.78;1.48;;;;;;;;;;4978480;28;20057;-76
2021/03/29 13:25:28;;;;;;;2.63;1.33;;;;;;;;;;4984139;28;20065;-76
2021/03/29 13:27:56;;;;;;;1.77;1.33;;;;;;;;;;4948706;28;20104;-76
2021/03/29 13:30:23;;;;;;;5.80;1.27;;;;;;;;;;4981811;28;20066;-77
2021/03/29 13:32:54;;;;;;;6.13;1.25;;;;;;;;;;4966240;28;20417;-74
2021/03/29 13:35:21;;;;;;;1.88;1.20;;;;;;;;;;4997401;28;20050;-73
2021/03/29 13:37:48;;;;;;;2.85;1.35;;;;;;;;;;4982698;28;20054;-76
2021/03/29 13:40:19;;;;;;;2.42;1.33;;;;;;;;;;5000135;28;20485;-75
2021/03/29 13:42:46;;;;;;;3.15;1.10;;;;;;;;;;4986057;28;20041;-76
2021/03/29 13:45:14;;;;;;;2.40;1.33;;;;;;;;;;4980316;28;20132;-76
2021/03/29 13:47:40;;;;;;;2.20;1.15;;;;;;;;;;4982733;28;20108;-76
2021/03/29 13:50:08;;;;;;;4.80;1.30;;;;;;;;;;4982980;28;20053;-77
2021/03/29 13:52:34;;;;;;;1.77;1.17;;;;;;;;;;4971538;28;20061;-75
2021/03/29 13:55:01;;;;;;;5.28;1.65;;;;;;;;;;4979404;28;20130;-76
2021/03/29 13:57:27;;;;;;;3.55;1.70;;;;;;;;;;5002056;28;20082;-74
2021/03/29 13:59:55;;;;;;;5.68;1.80;;;;;;;;;;4997247;28;20493;-75
2021/03/29 14:02:22;;;;;;;4.40;1.58;;;;;;;;;;5005185;28;20054;-72
2021/03/29 14:04:49;;;;;;;5.25;1.70;;;;;;;;;;4996316;28;20059;-72
2021/03/29 14:07:17;;;;;;;6.90;1.70;;;;;;;;;;5001097;28;20112;-77
2021/03/29 14:09:45;;;;;;;5.53;1.70;;;;;;;;;;4965747;28;20046;-75
2021/03/29 14:12:12;;;;;;;2.08;1.63;;;;;;;;;;5000056;28;20073;-76
2021/03/29 14:14:39;;;;;;;3.50;1.73;;;;;;;;;;4980201;28;20108;-74
2021/03/29 14:17:07;;;;;;;3.28;1.65;;;;;;;;;;4978574;28;20072;-75
2021/03/29 14:19:35;;;;;;;2.75;1.60;;;;;;;;;;5000064;28;20050;-73
2021/03/29 14:22:02;;;;;;;4.95;1.63;;;;;;;;;;4999785;28;20588;-75
2021/03/29 14:24:28;;;;;;;2.53;1.30;;;;;;;;;;4964446;28;20052;-75
2021/03/29 14:26:54;;;;;;;3.70;1.40;;;;;;;;;;4981157;28;20102;-75
2021/03/29 14:29:20;;;;;;;3.25;1.35;;;;;;;;;;4980633;28;20523;-74
2021/03/29 14:31:46;;;;;;;3.53;1.50;;;;;;;;;;5000689;28;20052;-75
2021/03/29 14:34:16;;;;;;;3.97;1.40;;;;;;;;;;4998710;28;20077;-75
2021/03/29 14:37:00;;;;;;;2.92;1.40;;;;;;;;;;4997401;28;20058;-75
2021/03/29 14:39:31;;;;;;;1.63;1.10;;;;;;;;;;5004559;28;20061;-77
2021/03/29 14:42:16;;;;;;;5.43;1.60;;;;;;;;;;5003947;28;20081;-76
2021/03/29 14:44:42;;;;;;;3.75;1.40;;;;;;;;;;4981118;28;21209;-76
2021/03/29 14:47:11;;;;;;;5.68;1.40;;;;;;;;;;5000859;28;20105;-77
2021/03/29 14:49:38;;;;;;;3.95;1.50;;;;;;;;;;4988183;28;20052;-77
2021/03/29 14:52:07;;;;;;;3.25;1.25;;;;;;;;;;4961628;28;20504;-78
2021/03/29 14:54:35;;;;;;;6.22;1.88;;;;;;;;;;4985924;28;20048;-75
2021/03/29 14:57:02;;;;;;;4.05;1.88;;;;;;;;;;4995248;28;20077;-74
2021/03/29 14:59:28;;;;;;;5.55;1.50;;;;;;;;;;5000057;28;20073;-74
2021/03/29 15:01:58;;;;;;;4.03;1.63;;;;;;;;;;5003024;28;20041;-73
2021/03/29 15:04:26;;;;;;;2.97;1.40;;;;;;;;;;5009578;28;20047;-74
2021/03/29 15:07:09;;;;;;;3.78;1.50;;;;;;;;;;4980215;28;20050;-75
2021/03/29 15:09:39;;;;;;;4.85;1.50;;;;;;;;;;4985146;28;20428;-74
2021/03/29 15:12:06;;;;;;;5.28;2.13;;;;;;;;;;5003697;28;20081;-75
2021/03/29 15:14:34;;;;;;;8.30;1.63;;;;;;;;;;5002080;28;20081;-74
2021/03/29 15:17:00;;;;;;;3.80;1.60;;;;;;;;;;4993544;23;20543;-75
2021/03/29 15:19:27;;;;;;;6.30;1.40;;;;;;;;;;4977212;28;20057;-75
2021/03/29 15:21:53;;;;;;;3.50;1.55;;;;;;;;;;4979365;28;20050;-74
2021/03/29 15:24:19;;;;;;;3.38;1.38;;;;;;;;;;4993923;28;20108;-74
2021/03/29 15:26:47;;;;;;;3.45;1.42;;;;;;;;;;4996044;28;20046;-77
2021/03/29 15:29:14;;;;;;;7.30;1.30;;;;;;;;;;4978634;28;20161;-75